createdAt,value
2018-02-21T00:02:12.629Z,99.90
2018-02-21T00:04:40.298Z,99.90
2018-02-21T00:07:07.918Z,99.90
2018-02-21T00:09:35.533Z,99.90
2018-02-21T00:12:03.191Z,99.90
2018-02-21T00:14:30.805Z,99.90
2018-02-21T00:16:58.457Z,99.90
2018-02-21T00:19:26.881Z,99.90
2018-02-21T00:21:55.245Z,99.90
2018-02-21T00:24:22.875Z,99.90
2018-02-21T00:26:51.230Z,99.90
2018-02-21T00:29:18.885Z,99.90
2018-02-21T00:31:46.616Z,99.90
2018-02-21T00:34:14.379Z,99.90
2018-02-21T00:36:42.143Z,99.90
2018-02-21T00:39:09.837Z,99.90
2018-02-21T00:41:38.241Z,99.90
2018-02-21T00:44:06.662Z,99.90
2018-02-21T00:46:34.337Z,99.90
2018-02-21T00:49:02.000Z,99.90
2018-02-21T00:51:29.626Z,99.90
2018-02-21T00:53:57.657Z,99.90
2018-02-21T00:56:26.088Z,99.90
2018-02-21T00:58:53.754Z,99.90
2018-02-21T01:01:21.413Z,99.90
2018-02-21T01:03:49.067Z,99.90
2018-02-21T01:06:16.686Z,99.90
2018-02-21T01:08:44.349Z,99.90
2018-02-21T01:11:12.022Z,99.90
2018-02-21T01:13:39.647Z,99.90
2018-02-21T01:16:07.571Z,99.90
2018-02-21T01:18:35.196Z,99.90
2018-02-21T01:21:02.813Z,99.90
2018-02-21T01:23:30.464Z,99.90
2018-02-21T01:25:58.084Z,99.90
2018-02-21T01:28:25.741Z,99.90
2018-02-21T01:30:53.357Z,99.90
2018-02-21T01:33:21.009Z,99.90
2018-02-21T01:35:48.631Z,99.90
2018-02-21T01:38:16.873Z,99.90
2018-02-21T01:40:45.252Z,99.90
2018-02-21T01:43:12.922Z,99.90
2018-02-21T01:45:41.569Z,99.90
2018-02-21T01:48:09.189Z,99.90
2018-02-21T01:50:48.850Z,99.90
2018-02-21T01:53:16.482Z,99.90
2018-02-21T01:55:44.142Z,99.90
2018-02-21T01:58:12.518Z,99.90
2018-02-21T02:00:40.180Z,99.90
2018-02-21T02:03:07.886Z,99.90
2018-02-21T02:05:35.549Z,99.90
2018-02-21T02:08:03.205Z,99.90
2018-02-21T02:10:30.826Z,99.90
2018-02-21T02:12:58.481Z,99.90
2018-02-21T02:15:26.098Z,99.90
2018-02-21T02:17:53.756Z,99.90
2018-02-21T02:20:21.425Z,99.90
2018-02-21T02:22:49.057Z,99.90
2018-02-21T02:25:16.678Z,99.90
2018-02-21T02:27:44.333Z,99.90
2018-02-21T02:30:12.709Z,99.90
2018-02-21T02:32:41.001Z,99.90
2018-02-21T02:35:08.654Z,99.90
2018-02-21T02:37:36.278Z,99.90
2018-02-21T02:40:05.371Z,99.90
2018-02-21T02:42:33.617Z,99.90
2018-02-21T02:45:01.391Z,99.90
2018-02-21T02:47:29.162Z,99.90
2018-02-21T02:49:57.310Z,99.90
2018-02-21T02:52:25.297Z,99.90
2018-02-21T02:54:52.954Z,99.90
2018-02-21T02:57:20.614Z,99.90
2018-02-21T02:59:48.265Z,99.90
2018-02-21T03:02:15.927Z,99.90
2018-02-21T03:04:43.801Z,99.90
2018-02-21T03:07:11.647Z,99.90
2018-02-21T03:09:39.265Z,99.90
2018-02-21T03:12:07.400Z,99.90
2018-02-21T03:14:35.951Z,99.90
2018-02-21T03:17:03.624Z,99.90
2018-02-21T03:19:31.385Z,99.90
2018-02-21T03:21:59.630Z,99.90
2018-02-21T03:24:27.329Z,99.90
2018-02-21T03:26:54.944Z,99.90
2018-02-21T03:29:22.602Z,99.90
2018-02-21T03:31:50.225Z,99.90
2018-02-21T03:34:17.936Z,99.90
2018-02-21T03:36:45.552Z,99.90
2018-02-21T03:39:13.407Z,99.90
2018-02-21T03:41:41.358Z,99.90
2018-02-21T03:44:09.250Z,99.90
2018-02-21T03:46:37.613Z,99.90
2018-02-21T03:49:05.589Z,99.90
2018-02-21T03:51:33.249Z,99.90
2018-02-21T03:54:00.983Z,99.90
2018-02-21T03:56:28.638Z,99.90
2018-02-21T03:58:56.468Z,99.90
2018-02-21T04:01:24.125Z,99.90
2018-02-21T04:03:52.119Z,99.90
2018-02-21T04:06:19.798Z,99.90
2018-02-21T04:08:47.563Z,99.90
2018-02-21T04:11:15.238Z,99.90
2018-02-21T04:13:42.860Z,99.90
2018-02-21T04:18:47.082Z,99.90
2018-02-21T04:21:15.196Z,99.90
2018-02-21T04:23:42.858Z,99.90
2018-02-21T04:26:11.196Z,99.90
2018-02-21T04:28:38.853Z,99.90
2018-02-21T04:31:06.472Z,99.90
2018-02-21T04:33:34.141Z,99.90
2018-02-21T04:36:01.802Z,99.90
2018-02-21T04:38:30.220Z,99.90
2018-02-21T04:40:57.891Z,99.90
2018-02-21T04:43:25.508Z,99.90
2018-02-21T04:45:53.171Z,99.90
2018-02-21T04:48:22.493Z,99.90
2018-02-21T04:50:50.145Z,99.90
2018-02-21T04:53:17.785Z,99.90
2018-02-21T04:55:51.199Z,99.90
2018-02-21T05:01:15.460Z,99.90
2018-02-21T05:03:43.081Z,99.90
2018-02-21T05:06:10.874Z,99.90
2018-02-21T05:08:38.701Z,99.90
2018-02-21T05:11:06.365Z,99.90
2018-02-21T05:13:34.018Z,99.90
2018-02-21T05:16:01.634Z,99.90
2018-02-21T05:18:29.288Z,99.90
2018-02-21T05:20:56.933Z,99.90
2018-02-21T05:23:24.585Z,99.90
2018-02-21T05:25:53.075Z,99.90
2018-02-21T05:28:20.721Z,99.90
2018-02-21T05:30:48.385Z,99.90
2018-02-21T05:33:16.306Z,99.90
2018-02-21T05:35:45.761Z,99.90
2018-02-21T05:38:13.741Z,99.90
2018-02-21T05:40:41.709Z,99.90
2018-02-21T05:43:09.331Z,99.90
2018-02-21T05:45:37.521Z,99.90
2018-02-21T05:48:05.995Z,99.90
2018-02-21T05:50:33.662Z,99.90
2018-02-21T05:53:01.973Z,99.90
2018-02-21T05:55:30.520Z,99.90
2018-02-21T05:57:58.141Z,99.90
2018-02-21T06:00:27.082Z,99.90
2018-02-21T06:02:55.190Z,99.90
2018-02-21T06:05:24.021Z,99.90
2018-02-21T06:07:53.124Z,99.90
2018-02-21T06:10:20.873Z,99.90
2018-02-21T06:12:48.537Z,99.90
2018-02-21T06:15:16.156Z,99.90
2018-02-21T06:17:44.127Z,99.90
2018-02-21T06:20:13.709Z,99.90
2018-02-21T06:22:42.662Z,99.90
2018-02-21T06:25:10.281Z,99.90
2018-02-21T06:27:37.941Z,99.90
2018-02-21T06:30:05.866Z,99.90
2018-02-21T06:32:33.534Z,99.90
2018-02-21T06:35:01.151Z,99.90
2018-02-21T06:37:28.817Z,99.90
2018-02-21T06:39:56.641Z,99.90
2018-02-21T06:42:25.076Z,99.90
2018-02-21T06:44:52.739Z,99.90
2018-02-21T06:47:20.357Z,99.90
2018-02-21T06:49:48.012Z,99.90
2018-02-21T06:52:15.873Z,99.90
2018-02-21T06:54:43.546Z,99.90
2018-02-21T06:57:11.411Z,99.90
2018-02-21T06:59:39.038Z,99.90
2018-02-21T07:02:06.718Z,99.90
2018-02-21T07:04:34.374Z,99.90
2018-02-21T07:07:01.992Z,99.90
2018-02-21T07:09:29.664Z,99.90
2018-02-21T07:11:57.293Z,99.90
2018-02-21T07:14:24.985Z,99.90
2018-02-21T07:16:52.652Z,99.90
2018-02-21T07:19:20.285Z,99.90
2018-02-21T07:21:47.945Z,99.90
2018-02-21T07:24:15.577Z,99.90
2018-02-21T07:26:43.237Z,99.90
2018-02-21T07:29:10.895Z,99.90
2018-02-21T07:31:39.251Z,99.90
2018-02-21T07:34:07.085Z,99.90
2018-02-21T07:36:35.502Z,99.90
2018-02-21T07:39:03.166Z,99.90
2018-02-21T07:41:30.786Z,99.90
2018-02-21T07:43:58.528Z,99.90
2018-02-21T07:46:26.150Z,99.90
2018-02-21T07:48:53.821Z,99.90
2018-02-21T07:51:21.448Z,99.90
2018-02-21T07:53:49.872Z,99.90
2018-02-21T07:56:17.570Z,99.90
2018-02-21T07:58:45.206Z,99.90
2018-02-21T08:01:12.866Z,99.90
2018-02-21T08:03:40.490Z,99.90
2018-02-21T08:06:08.859Z,99.90
2018-02-21T08:08:36.685Z,99.90
2018-02-21T08:11:04.321Z,99.90
2018-02-21T08:13:31.982Z,99.90
2018-02-21T08:16:00.196Z,99.90
2018-02-21T08:18:28.593Z,99.90
2018-02-21T08:20:56.222Z,99.90
2018-02-21T08:23:23.918Z,99.90
2018-02-21T08:25:51.541Z,99.90
2018-02-21T08:28:20.693Z,99.90
2018-02-21T08:30:48.346Z,99.90
2018-02-21T08:33:16.018Z,99.90
2018-02-21T08:35:43.637Z,99.90
2018-02-21T08:38:11.478Z,99.90
2018-02-21T08:40:39.934Z,99.90
2018-02-21T08:43:07.618Z,99.90
2018-02-21T08:45:35.245Z,99.90
2018-02-21T08:48:03.226Z,99.90
2018-02-21T08:50:30.888Z,99.90
2018-02-21T08:52:58.547Z,99.90
2018-02-21T08:55:26.210Z,99.90
2018-02-21T08:57:54.595Z,99.90
2018-02-21T09:00:22.229Z,99.90
2018-02-21T09:02:50.027Z,99.90
2018-02-21T09:05:17.652Z,99.90
2018-02-21T09:07:45.309Z,99.90
2018-02-21T09:10:12.966Z,99.90
2018-02-21T09:12:41.205Z,99.90
2018-02-21T09:15:08.845Z,99.90
2018-02-21T09:17:36.471Z,99.90
2018-02-21T09:20:04.139Z,96.80
2018-02-21T09:22:32.498Z,97.30
2018-02-21T09:25:00.117Z,92.60
2018-02-21T09:27:27.772Z,91.70
2018-02-21T09:29:56.160Z,91.80
2018-02-21T09:32:23.827Z,91.70
2018-02-21T09:34:52.812Z,91.60
2018-02-21T09:37:21.238Z,92.10
2018-02-21T09:39:49.273Z,91.70
2018-02-21T09:42:16.937Z,88.70
2018-02-21T09:44:44.558Z,89.00
2018-02-21T09:47:12.225Z,86.40
2018-02-21T09:49:40.888Z,89.10
2018-02-21T09:52:08.549Z,83.00
2018-02-21T09:54:36.246Z,84.00
2018-02-21T09:57:03.861Z,82.90
2018-02-21T09:59:31.522Z,79.90
2018-02-21T10:01:59.143Z,79.00
2018-02-21T10:04:27.562Z,77.70
2018-02-21T10:06:55.189Z,77.50
2018-02-21T10:09:22.858Z,78.10
2018-02-21T10:11:50.481Z,77.80
2018-02-21T10:14:18.914Z,77.30
2018-02-21T10:16:47.259Z,76.50
2018-02-21T10:19:14.974Z,75.00
2018-02-21T10:21:42.634Z,72.20
2018-02-21T10:24:10.293Z,71.10
2018-02-21T10:26:40.578Z,70.70
2018-02-21T10:29:08.482Z,69.90
2018-02-21T10:31:36.103Z,69.40
2018-02-21T10:34:04.238Z,70.80
2018-02-21T10:36:31.893Z,70.90
2018-02-21T10:38:59.517Z,68.80
2018-02-21T10:41:27.174Z,60.90
2018-02-21T10:43:54.788Z,61.00
2018-02-21T10:46:23.214Z,62.10
2018-02-21T10:48:50.831Z,62.00
2018-02-21T10:51:18.484Z,61.40
2018-02-21T10:53:46.097Z,64.00
2018-02-21T10:56:13.741Z,63.10
2018-02-21T10:58:41.362Z,63.10
2018-02-21T11:01:15.681Z,69.40
2018-02-21T11:03:43.338Z,69.20
2018-02-21T11:06:11.763Z,67.80
2018-02-21T11:08:39.425Z,68.70
2018-02-21T11:11:07.069Z,68.10
2018-02-21T11:13:34.725Z,67.90
2018-02-21T11:16:02.360Z,66.70
2018-02-21T11:18:30.713Z,67.80
2018-02-21T11:20:58.959Z,70.00
2018-02-21T11:23:26.666Z,67.40
2018-02-21T11:25:55.321Z,72.60
2018-02-21T11:28:22.970Z,72.40
2018-02-21T11:30:50.579Z,71.10
2018-02-21T11:33:19.012Z,71.00
2018-02-21T11:35:47.426Z,71.10
2018-02-21T11:38:15.090Z,70.70
2018-02-21T11:40:43.478Z,74.20
2018-02-21T11:43:11.133Z,73.40
2018-02-21T11:45:38.805Z,74.50
2018-02-21T11:48:06.514Z,78.80
2018-02-21T11:50:34.228Z,78.60
2018-02-21T11:53:02.649Z,79.50
2018-02-21T11:55:30.269Z,79.30
2018-02-21T11:57:57.920Z,81.50
2018-02-21T12:00:26.617Z,79.10
2018-02-21T12:02:54.268Z,79.50
2018-02-21T12:05:21.932Z,80.60
2018-02-21T12:07:49.553Z,80.50
2018-02-21T12:10:17.222Z,82.20
2018-02-21T12:12:44.865Z,83.90
2018-02-21T12:15:13.986Z,80.40
2018-02-21T12:17:42.401Z,81.60
2018-02-21T12:20:10.021Z,82.30
2018-02-21T12:22:37.677Z,80.80
2018-02-21T12:25:05.338Z,81.60
2018-02-21T12:27:34.318Z,82.80
2018-02-21T12:30:01.945Z,78.60
2018-02-21T12:32:31.756Z,78.10
2018-02-21T12:34:59.373Z,73.30
2018-02-21T12:37:27.038Z,76.80
2018-02-21T12:39:59.576Z,76.00
2018-02-21T12:42:27.712Z,74.90
2018-02-21T12:44:56.082Z,76.40
2018-02-21T12:47:23.697Z,78.10
2018-02-21T12:49:51.353Z,77.20
2018-02-21T12:52:19.777Z,79.90
2018-02-21T12:54:47.402Z,79.90
2018-02-21T12:57:15.824Z,80.40
2018-02-21T12:59:43.442Z,80.40
2018-02-21T13:02:11.113Z,79.70
2018-02-21T13:04:38.735Z,80.20
2018-02-21T13:07:06.411Z,81.80
2018-02-21T13:09:34.061Z,81.40
2018-02-21T13:12:01.802Z,82.30
2018-02-21T13:14:29.566Z,80.10
2018-02-21T13:16:57.218Z,80.90
2018-02-21T13:19:24.872Z,80.50
2018-02-21T13:21:52.547Z,79.50
2018-02-21T13:24:20.194Z,77.70
2018-02-21T13:26:47.811Z,77.90
2018-02-21T13:29:15.550Z,79.40
2018-02-21T13:31:43.182Z,82.50
2018-02-21T13:34:10.843Z,81.20
2018-02-21T13:36:38.462Z,81.50
2018-02-21T13:39:06.841Z,84.10
2018-02-21T13:41:35.286Z,82.50
2018-02-21T13:44:02.906Z,82.60
2018-02-21T13:46:31.130Z,82.10
2018-02-21T13:48:59.517Z,83.20
2018-02-21T13:51:27.191Z,82.00
2018-02-21T13:53:55.608Z,81.10
2018-02-21T13:56:23.569Z,81.20
2018-02-21T13:58:51.181Z,85.10
2018-02-21T14:01:18.829Z,88.90
2018-02-21T14:03:46.491Z,87.20
2018-02-21T14:06:14.106Z,87.40
2018-02-21T14:08:41.812Z,87.90
2018-02-21T14:11:09.562Z,89.10
2018-02-21T14:13:37.900Z,87.50
2018-02-21T14:16:05.524Z,85.10
2018-02-21T14:18:33.147Z,84.80
2018-02-21T14:21:00.806Z,78.70
2018-02-21T14:23:28.855Z,81.70
2018-02-21T14:25:56.518Z,81.70
2018-02-21T14:28:24.190Z,81.70
2018-02-21T14:30:51.847Z,81.90
2018-02-21T14:33:19.477Z,82.70
2018-02-21T14:35:47.135Z,84.00
2018-02-21T14:38:14.949Z,85.20
2018-02-21T14:40:42.601Z,83.70
2018-02-21T14:43:10.474Z,85.60
2018-02-21T14:45:38.442Z,85.30
2018-02-21T14:48:06.059Z,84.00
2018-02-21T14:50:33.769Z,85.30
2018-02-21T14:53:01.994Z,87.20
2018-02-21T14:55:29.648Z,87.00
2018-02-21T14:57:57.268Z,88.40
2018-02-21T15:00:24.921Z,88.20
2018-02-21T15:02:52.770Z,86.70
2018-02-21T15:05:20.717Z,85.60
2018-02-21T15:07:48.678Z,83.80
2018-02-21T15:10:16.293Z,85.70
2018-02-21T15:12:44.722Z,88.30
2018-02-21T15:15:12.412Z,88.00
2018-02-21T15:17:40.088Z,87.20
2018-02-21T15:20:08.450Z,88.20
2018-02-21T15:22:36.078Z,88.00
2018-02-21T15:25:03.745Z,88.20
2018-02-21T15:27:31.940Z,88.20
2018-02-21T15:29:59.612Z,87.20
2018-02-21T15:32:27.232Z,87.20
2018-02-21T15:34:54.857Z,85.50
2018-02-21T15:37:23.215Z,85.10
2018-02-21T15:39:50.831Z,85.40
2018-02-21T15:42:19.254Z,88.30
2018-02-21T15:44:46.924Z,86.30
2018-02-21T15:47:14.549Z,86.40
2018-02-21T15:49:42.307Z,84.80
2018-02-21T15:52:10.842Z,84.50
2018-02-21T15:54:38.670Z,84.70
2018-02-21T15:57:06.290Z,85.30
2018-02-21T15:59:33.948Z,87.00
2018-02-21T16:02:01.650Z,86.10
2018-02-21T16:04:29.305Z,88.50
2018-02-21T16:06:56.961Z,89.10
2018-02-21T16:09:24.634Z,89.20
2018-02-21T16:11:52.861Z,88.20
2018-02-21T16:14:20.478Z,87.90
2018-02-21T16:16:48.141Z,89.10
2018-02-21T16:19:15.757Z,90.20
2018-02-21T16:21:43.424Z,91.40
2018-02-21T16:24:11.041Z,93.10
2018-02-21T16:26:38.698Z,93.60
2018-02-21T16:29:07.129Z,95.90
2018-02-21T16:31:34.805Z,95.50
2018-02-21T16:34:02.465Z,96.40
2018-02-21T16:36:30.084Z,97.00
2018-02-21T16:38:57.973Z,98.60
2018-02-21T16:41:25.630Z,99.90
2018-02-21T16:43:53.305Z,99.90
2018-02-21T16:46:20.917Z,99.90
2018-02-21T16:48:48.573Z,99.90
2018-02-21T16:51:16.298Z,99.90
2018-02-21T16:53:43.965Z,99.90
2018-02-21T16:56:11.822Z,99.90
2018-02-21T16:58:40.213Z,99.90
2018-02-21T17:01:08.311Z,99.90
2018-02-21T17:03:36.161Z,99.90
2018-02-21T17:06:03.834Z,99.90
2018-02-21T17:08:32.481Z,99.90
2018-02-21T17:11:01.307Z,99.90
2018-02-21T17:13:28.986Z,99.90
2018-02-21T17:15:56.641Z,99.90
2018-02-21T17:18:24.535Z,99.90
2018-02-21T17:20:52.198Z,99.90
2018-02-21T17:23:20.572Z,99.90
2018-02-21T17:25:48.205Z,99.90
2018-02-21T17:28:15.862Z,99.90
2018-02-21T17:30:43.653Z,99.90
2018-02-21T17:33:11.270Z,99.90
2018-02-21T17:35:38.900Z,99.90
2018-02-21T17:38:07.546Z,99.90
2018-02-21T17:40:35.197Z,99.90
2018-02-21T17:43:02.994Z,99.90
2018-02-21T17:45:31.980Z,99.90
2018-02-21T17:47:59.782Z,99.90
2018-02-21T17:50:28.206Z,99.90
2018-02-21T17:52:56.141Z,99.90
2018-02-21T17:55:24.661Z,99.90
2018-02-21T17:57:52.680Z,99.90
2018-02-21T18:00:20.891Z,99.90
2018-02-21T18:02:48.546Z,99.90
2018-02-21T18:05:16.861Z,99.90
2018-02-21T18:07:44.777Z,99.90
2018-02-21T18:10:14.018Z,99.90
2018-02-21T18:12:41.680Z,99.90
2018-02-21T18:15:09.352Z,99.90
2018-02-21T18:17:37.610Z,99.90
2018-02-21T18:20:05.290Z,99.90
2018-02-21T18:22:32.916Z,99.90
2018-02-21T18:25:00.566Z,99.90
2018-02-21T18:27:28.417Z,99.90
2018-02-21T18:30:01.433Z,99.90
2018-02-21T18:32:29.301Z,99.90
2018-02-21T18:34:56.960Z,99.90
2018-02-21T18:37:24.627Z,99.90
2018-02-21T18:39:52.252Z,99.90
2018-02-21T18:42:19.918Z,99.90
2018-02-21T18:44:47.602Z,99.90
2018-02-21T18:47:15.230Z,99.90
2018-02-21T18:49:42.922Z,99.90
2018-02-21T18:52:10.833Z,99.90
2018-02-21T18:54:39.231Z,99.90
2018-02-21T18:57:07.576Z,99.90
2018-02-21T18:59:35.317Z,99.90
2018-02-21T19:02:03.166Z,99.90
2018-02-21T19:04:30.930Z,99.90
2018-02-21T19:07:00.200Z,99.90
2018-02-21T19:09:28.010Z,99.90
2018-02-21T19:11:56.287Z,99.90
2018-02-21T19:14:23.964Z,99.90
2018-02-21T19:16:52.249Z,99.90
2018-02-21T19:19:19.869Z,99.90
2018-02-21T19:21:48.339Z,99.90
2018-02-21T19:24:16.843Z,99.90
2018-02-21T19:26:44.510Z,99.90
2018-02-21T19:29:17.795Z,99.90
2018-02-21T19:31:53.159Z,99.90
2018-02-21T19:34:21.202Z,99.90
2018-02-21T19:36:48.821Z,99.90
2018-02-21T19:39:16.479Z,99.90
2018-02-21T19:41:44.825Z,99.90
2018-02-21T19:44:13.249Z,99.90
2018-02-21T19:46:40.877Z,99.90
2018-02-21T19:49:08.536Z,99.90
2018-02-21T19:51:36.169Z,99.90
2018-02-21T19:54:03.989Z,99.90
2018-02-21T19:56:31.658Z,99.90
2018-02-21T19:58:59.279Z,99.90
2018-02-21T20:01:29.113Z,99.90
2018-02-21T20:03:57.004Z,99.90
2018-02-21T20:06:24.633Z,99.90
2018-02-21T20:08:52.299Z,99.90
2018-02-21T20:11:19.926Z,99.90
2018-02-21T20:13:47.591Z,99.90
2018-02-21T20:16:15.986Z,99.90
2018-02-21T20:18:44.460Z,99.90
2018-02-21T20:21:12.110Z,99.90
2018-02-21T20:23:40.494Z,99.90
2018-02-21T20:26:08.162Z,99.90
2018-02-21T20:28:35.821Z,99.90
2018-02-21T20:31:03.446Z,99.90
2018-02-21T20:33:31.064Z,99.90
2018-02-21T20:35:58.726Z,99.90
2018-02-21T20:38:26.456Z,99.90
2018-02-21T20:40:54.088Z,99.90
2018-02-21T20:43:21.888Z,99.90
2018-02-21T20:45:49.551Z,99.90
2018-02-21T20:48:17.193Z,99.90
2018-02-21T20:50:45.619Z,99.90
2018-02-21T20:53:13.955Z,99.90
2018-02-21T20:55:41.657Z,99.90
2018-02-21T20:58:09.278Z,99.90
2018-02-21T21:00:36.946Z,99.90
2018-02-21T21:03:04.570Z,99.90
2018-02-21T21:05:32.416Z,99.90
2018-02-21T21:08:00.183Z,99.90
2018-02-21T21:10:27.837Z,99.90
2018-02-21T21:12:55.794Z,99.90
2018-02-21T21:15:23.429Z,99.90
2018-02-21T21:17:51.089Z,99.90
2018-02-21T21:20:19.629Z,99.90
2018-02-21T21:22:47.252Z,99.90
2018-02-21T21:25:14.922Z,99.90
2018-02-21T21:27:42.551Z,99.90
2018-02-21T21:30:10.182Z,99.90
2018-02-21T21:32:38.157Z,99.90
2018-02-21T21:35:06.541Z,99.90
2018-02-21T21:37:34.196Z,99.90
2018-02-21T21:40:01.846Z,99.90
2018-02-21T21:42:29.518Z,99.90
2018-02-21T21:44:57.941Z,99.90
2018-02-21T21:47:25.597Z,99.90
2018-02-21T21:49:53.271Z,99.90
2018-02-21T21:52:20.905Z,99.90
2018-02-21T21:54:48.566Z,99.90
2018-02-21T21:57:16.390Z,99.90
2018-02-21T21:59:45.047Z,99.90
2018-02-21T22:02:12.891Z,99.90
2018-02-21T22:04:40.512Z,99.90
2018-02-21T22:07:08.958Z,99.90
2018-02-21T22:09:36.705Z,99.90
2018-02-21T22:12:04.361Z,99.90
2018-02-21T22:14:32.029Z,99.90
2018-02-21T22:16:59.650Z,99.90
2018-02-21T22:19:27.435Z,99.90
2018-02-21T22:21:55.429Z,99.90
2018-02-21T22:24:23.184Z,99.90
2018-02-21T22:26:50.814Z,99.90
2018-02-21T22:29:18.482Z,99.90
2018-02-21T22:31:46.114Z,99.90
2018-02-21T22:34:13.772Z,99.90
2018-02-21T22:36:41.398Z,99.90
2018-02-21T22:39:09.061Z,99.90
2018-02-21T22:41:36.716Z,99.90
2018-02-21T22:44:05.141Z,99.90
2018-02-21T22:46:32.809Z,99.90
2018-02-21T22:49:00.430Z,99.90
2018-02-21T22:51:28.059Z,99.90
2018-02-21T22:53:55.957Z,99.90
2018-02-21T22:56:23.621Z,99.90
2018-02-21T22:58:51.250Z,99.90
2018-02-21T23:01:18.914Z,99.90
2018-02-21T23:03:47.382Z,99.90
2018-02-21T23:06:15.026Z,99.90
2018-02-21T23:08:42.682Z,99.90
2018-02-21T23:11:10.316Z,99.90
2018-02-21T23:13:38.134Z,99.90
2018-02-21T23:16:05.793Z,99.90
2018-02-21T23:18:33.451Z,99.90
2018-02-21T23:21:01.844Z,99.90
2018-02-21T23:23:29.574Z,99.90
2018-02-21T23:25:57.233Z,99.90
2018-02-21T23:28:24.896Z,99.90
2018-02-21T23:30:52.558Z,99.90
2018-02-21T23:33:20.592Z,99.90
2018-02-21T23:35:48.241Z,99.90
2018-02-21T23:38:15.906Z,99.90
2018-02-21T23:40:43.607Z,99.90
2018-02-21T23:43:11.281Z,99.90
2018-02-21T23:45:38.936Z,99.90
2018-02-21T23:48:06.557Z,99.90
2018-02-21T23:50:34.219Z,99.90
2018-02-21T23:53:01.840Z,99.90
2018-02-21T23:55:30.282Z,99.90
2018-02-21T23:57:57.901Z,99.90
